sensor_id;sensor_type;location;lat;lon;timestamp;pressure;altitude;pressure_sealevel;temperature;humidity
9764;BME280;4921;43.214;27.936;2023-05-29T00:01:19;100606.91;;;20.34;100.00
9764;BME280;4921;43.214;27.936;2023-05-29T00:03:49;100611.88;;;20.37;100.00
9764;BME280;4921;43.214;27.936;2023-05-29T00:06:16;100608.75;;;20.34;100.00
9764;BME280;4921;43.214;27.936;2023-05-29T00:08:43;100617.69;;;20.41;100.00
9764;BME280;4921;43.214;27.936;2023-05-29T00:11:12;100617.13;;;20.45;100.00
9764;BME280;4921;43.214;27.936;2023-05-29T00:13:39;100612.34;;;20.41;100.00
9764;BME280;4921;43.214;27.936;2023-05-29T00:16:07;100598.81;;;20.28;100.00
9764;BME280;4921;43.214;27.936;2023-05-29T00:18:34;100603.22;;;20.35;100.00
9764;BME280;4921;43.214;27.936;2023-05-29T00:21:02;100603.78;;;20.45;100.00
9764;BME280;4921;43.214;27.936;2023-05-29T00:23:29;100606.25;;;20.47;100.00
9764;BME280;4921;43.214;27.936;2023-05-29T00:25:56;100605.25;;;20.48;100.00
9764;BME280;4921;43.214;27.936;2023-05-29T00:28:24;100609.13;;;20.45;100.00
9764;BME280;4921;43.214;27.936;2023-05-29T00:30:51;100603.97;;;20.44;100.00
9764;BME280;4921;43.214;27.936;2023-05-29T00:33:18;100600.47;;;20.43;100.00
9764;BME280;4921;43.214;27.936;2023-05-29T00:35:45;100598.97;;;20.41;100.00
9764;BME280;4921;43.214;27.936;2023-05-29T00:38:12;100607.00;;;20.41;100.00
9764;BME280;4921;43.214;27.936;2023-05-29T00:40:39;100598.16;;;20.40;100.00
9764;BME280;4921;43.214;27.936;2023-05-29T00:43:06;100605.16;;;20.41;100.00
9764;BME280;4921;43.214;27.936;2023-05-29T00:45:34;100594.47;;;20.41;100.00
9764;BME280;4921;43.214;27.936;2023-05-29T00:48:02;100604.78;;;20.44;100.00
9764;BME280;4921;43.214;27.936;2023-05-29T00:50:30;100605.59;;;20.45;100.00
9764;BME280;4921;43.214;27.936;2023-05-29T00:52:58;100601.09;;;20.45;100.00
9764;BME280;4921;43.214;27.936;2023-05-29T00:55:27;100600.47;;;20.43;100.00
9764;BME280;4921;43.214;27.936;2023-05-29T00:57:54;100603.31;;;20.42;100.00
9764;BME280;4921;43.214;27.936;2023-05-29T01:00:22;100603.22;;;20.35;100.00
9764;BME280;4921;43.214;27.936;2023-05-29T01:02:51;100594.59;;;20.33;100.00
9764;BME280;4921;43.214;27.936;2023-05-29T01:05:19;100589.25;;;20.33;100.00
9764;BME280;4921;43.214;27.936;2023-05-29T01:07:46;100584.97;;;20.39;100.00
9764;BME280;4921;43.214;27.936;2023-05-29T01:10:14;100584.97;;;20.39;100.00
9764;BME280;4921;43.214;27.936;2023-05-29T01:12:45;100580.63;;;20.38;100.00
9764;BME280;4921;43.214;27.936;2023-05-29T01:15:20;100581.88;;;20.35;100.00
9764;BME280;4921;43.214;27.936;2023-05-29T01:18:11;100583.50;;;20.36;100.00
9764;BME280;4921;43.214;27.936;2023-05-29T01:20:42;100589.25;;;20.33;100.00
9764;BME280;4921;43.214;27.936;2023-05-29T01:23:27;100583.25;;;20.31;100.00
9764;BME280;4921;43.214;27.936;2023-05-29T01:26:11;100582.22;;;20.32;100.00
9764;BME280;4921;43.214;27.936;2023-05-29T01:28:41;100584.91;;;20.32;100.00
9764;BME280;4921;43.214;27.936;2023-05-29T01:31:10;100577.91;;;20.31;100.00
9764;BME280;4921;43.214;27.936;2023-05-29T01:33:39;100577.44;;;20.28;100.00
9764;BME280;4921;43.214;27.936;2023-05-29T01:36:07;100581.59;;;20.30;100.00
9764;BME280;4921;43.214;27.936;2023-05-29T01:38:35;100570.06;;;20.30;100.00
9764;BME280;4921;43.214;27.936;2023-05-29T01:41:03;100573.94;;;20.27;100.00
9764;BME280;4921;43.214;27.936;2023-05-29T01:43:30;100574.97;;;20.26;100.00
9764;BME280;4921;43.214;27.936;2023-05-29T01:45:59;100579.09;;;20.29;100.00
9764;BME280;4921;43.214;27.936;2023-05-29T01:48:30;100584.25;;;20.30;100.00
9764;BME280;4921;43.214;27.936;2023-05-29T01:50:57;100566.47;;;20.23;100.00
9764;BME280;4921;43.214;27.936;2023-05-29T01:53:25;100572.09;;;20.28;100.00
9764;BME280;4921;43.214;27.936;2023-05-29T01:55:52;100575.25;;;20.31;100.00
9764;BME280;4921;43.214;27.936;2023-05-29T01:58:20;100573.38;;;20.32;100.00
9764;BME280;4921;43.214;27.936;2023-05-29T02:00:48;100577.44;;;20.28;100.00
9764;BME280;4921;43.214;27.936;2023-05-29T02:03:17;100576.44;;;20.29;100.00
9764;BME280;4921;43.214;27.936;2023-05-29T02:05:43;100576.03;;;20.32;100.00
9764;BME280;4921;43.214;27.936;2023-05-29T02:08:11;100577.72;;;20.33;100.00
9764;BME280;4921;43.214;27.936;2023-05-29T02:10:38;100579.56;;;20.32;100.00
9764;BME280;4921;43.214;27.936;2023-05-29T02:13:05;100581.38;;;20.32;100.00
9764;BME280;4921;43.214;27.936;2023-05-29T02:15:32;100582.03;;;20.34;100.00
9764;BME280;4921;43.214;27.936;2023-05-29T02:17:59;100577.91;;;20.31;100.00
9764;BME280;4921;43.214;27.936;2023-05-29T02:20:27;100584.69;;;20.34;100.00
9764;BME280;4921;43.214;27.936;2023-05-29T02:22:55;100576.25;;;20.30;100.00
9764;BME280;4921;43.214;27.936;2023-05-29T02:25:21;100573.38;;;20.32;100.00
9764;BME280;4921;43.214;27.936;2023-05-29T02:27:48;100573.38;;;20.32;100.00
9764;BME280;4921;43.214;27.936;2023-05-29T02:30:15;100565.38;;;20.32;100.00
9764;BME280;4921;43.214;27.936;2023-05-29T02:32:42;100569.91;;;20.31;100.00
9764;BME280;4921;43.214;27.936;2023-05-29T02:35:09;100580.00;;;20.36;100.00
9764;BME280;4921;43.214;27.936;2023-05-29T02:37:40;100574.22;;;20.32;100.00
9764;BME280;4921;43.214;27.936;2023-05-29T02:40:08;100577.91;;;20.31;100.00
9764;BME280;4921;43.214;27.936;2023-05-29T02:42:36;100577.63;;;20.26;100.00
9764;BME280;4921;43.214;27.936;2023-05-29T02:45:04;100579.28;;;20.27;100.00
9764;BME280;4921;43.214;27.936;2023-05-29T02:47:31;100577.44;;;20.28;100.00
9764;BME280;4921;43.214;27.936;2023-05-29T02:49:58;100588.31;;;20.26;100.00
9764;BME280;4921;43.214;27.936;2023-05-29T02:52:25;100587.84;;;20.23;100.00
9764;BME280;4921;43.214;27.936;2023-05-29T02:54:54;100594.50;;;20.27;100.00
9764;BME280;4921;43.214;27.936;2023-05-29T02:57:21;100599.00;;;20.26;100.00
9764;BME280;4921;43.214;27.936;2023-05-29T02:59:48;100592.47;;;20.29;100.00
9764;BME280;4921;43.214;27.936;2023-05-29T03:02:15;100599.63;;;20.28;100.00
9764;BME280;4921;43.214;27.936;2023-05-29T03:04:42;100599.00;;;20.26;100.00
9764;BME280;4921;43.214;27.936;2023-05-29T03:07:09;100602.66;;;20.25;100.00
9764;BME280;4921;43.214;27.936;2023-05-29T03:09:36;100594.66;;;20.25;100.00
9764;BME280;4921;43.214;27.936;2023-05-29T03:12:05;100601.47;;;20.28;100.00
9764;BME280;4921;43.214;27.936;2023-05-29T03:14:32;100603.94;;;20.29;100.00
9764;BME280;4921;43.214;27.936;2023-05-29T03:17:01;100609.19;;;20.23;100.00
9764;BME280;4921;43.214;27.936;2023-05-29T03:19:28;100615.22;;;20.25;100.00
9764;BME280;4921;43.214;27.936;2023-05-29T03:21:55;100615.03;;;20.26;100.00
9764;BME280;4921;43.214;27.936;2023-05-29T03:24:22;100617.97;;;20.31;100.00
9764;BME280;4921;43.214;27.936;2023-05-29T03:26:50;100603.41;;;20.34;100.00
9764;BME280;4921;43.214;27.936;2023-05-29T03:29:18;100604.03;;;20.36;100.00
9764;BME280;4921;43.214;27.936;2023-05-29T03:31:45;100620.91;;;20.36;100.00
9764;BME280;4921;43.214;27.936;2023-05-29T03:34:12;100601.75;;;20.33;100.00
9764;BME280;4921;43.214;27.936;2023-05-29T03:36:39;100605.34;;;20.40;100.00
9764;BME280;4921;43.214;27.936;2023-05-29T03:39:06;100610.03;;;20.38;100.00
9764;BME280;4921;43.214;27.936;2023-05-29T03:41:33;100598.06;;;20.34;100.00
9764;BME280;4921;43.214;27.936;2023-05-29T03:44:00;100619.44;;;20.34;100.00
9764;BME280;4921;43.214;27.936;2023-05-29T03:46:31;100615.94;;;20.33;100.00
9764;BME280;4921;43.214;27.936;2023-05-29T03:48:58;100616.59;;;20.35;100.00
9764;BME280;4921;43.214;27.936;2023-05-29T03:51:25;100614.91;;;20.34;100.00
9764;BME280;4921;43.214;27.936;2023-05-29T03:53:52;100618.44;;;20.35;100.00
9764;BME280;4921;43.214;27.936;2023-05-29T03:56:19;100613.72;;;20.37;100.00
9764;BME280;4921;43.214;27.936;2023-05-29T03:58:47;100619.25;;;20.35;100.00
9764;BME280;4921;43.214;27.936;2023-05-29T04:01:14;100629.13;;;20.35;100.00
9764;BME280;4921;43.214;27.936;2023-05-29T04:03:42;100636.75;;;20.38;100.00
9764;BME280;4921;43.214;27.936;2023-05-29T04:06:10;100634.53;;;20.41;100.00
9764;BME280;4921;43.214;27.936;2023-05-29T04:08:38;100635.81;;;20.45;100.00
9764;BME280;4921;43.214;27.936;2023-05-29T04:11:05;100630.94;;;20.49;100.00
9764;BME280;4921;43.214;27.936;2023-05-29T04:13:32;100635.81;;;20.45;100.00
9764;BME280;4921;43.214;27.936;2023-05-29T04:15:59;100636.47;;;20.47;100.00
9764;BME280;4921;43.214;27.936;2023-05-29T04:18:26;100627.91;;;20.52;100.00
9764;BME280;4921;43.214;27.936;2023-05-29T04:20:54;100636.00;;;20.59;100.00
9764;BME280;4921;43.214;27.936;2023-05-29T04:23:21;100634.63;;;20.63;100.00
9764;BME280;4921;43.214;27.936;2023-05-29T04:25:48;100635.25;;;20.65;100.00
9764;BME280;4921;43.214;27.936;2023-05-29T04:28:16;100641.03;;;20.68;100.00
9764;BME280;4921;43.214;27.936;2023-05-29T04:30:45;100641.88;;;20.69;100.00
9764;BME280;4921;43.214;27.936;2023-05-29T04:33:12;100628.28;;;20.64;100.00
9764;BME280;4921;43.214;27.936;2023-05-29T04:35:40;100644.28;;;20.78;100.00
9764;BME280;4921;43.214;27.936;2023-05-29T04:38:09;100655.06;;;20.85;100.00
9764;BME280;4921;43.214;27.936;2023-05-29T04:40:36;100641.41;;;20.80;100.00
9764;BME280;4921;43.214;27.936;2023-05-29T04:43:03;100639.94;;;20.77;100.00
9764;BME280;4921;43.214;27.936;2023-05-29T04:45:31;100641.59;;;20.78;100.00
9764;BME280;4921;43.214;27.936;2023-05-29T04:47:58;100640.13;;;20.76;100.00
9764;BME280;4921;43.214;27.936;2023-05-29T04:50:25;100654.31;;;20.76;100.00
9764;BME280;4921;43.214;27.936;2023-05-29T04:52:55;100665.81;;;20.77;100.00
9764;BME280;4921;43.214;27.936;2023-05-29T04:55:24;100658.84;;;20.76;100.00
9764;BME280;4921;43.214;27.936;2023-05-29T04:57:50;100663.34;;;20.75;100.00
9764;BME280;4921;43.214;27.936;2023-05-29T05:00:19;100664.94;;;20.70;100.00
9764;BME280;4921;43.214;27.936;2023-05-29T05:02:46;100668.44;;;20.70;100.00
9764;BME280;4921;43.214;27.936;2023-05-29T05:05:13;100674.59;;;20.71;100.00
9764;BME280;4921;43.214;27.936;2023-05-29T05:07:39;100676.91;;;20.74;100.00
9764;BME280;4921;43.214;27.936;2023-05-29T05:10:07;100678.75;;;20.73;100.00
9764;BME280;4921;43.214;27.936;2023-05-29T05:12:35;100676.63;;;20.69;100.00
9764;BME280;4921;43.214;27.936;2023-05-29T05:15:03;100673.31;;;20.67;100.00
9764;BME280;4921;43.214;27.936;2023-05-29T05:17:30;100674.69;;;20.63;100.00
9764;BME280;4921;43.214;27.936;2023-05-29T05:19:57;100677.00;;;20.66;100.00
9764;BME280;4921;43.214;27.936;2023-05-29T05:22:24;100682.44;;;20.58;100.00
9764;BME280;4921;43.214;27.936;2023-05-29T05:24:51;100677.94;;;20.58;100.00
9764;BME280;4921;43.214;27.936;2023-05-29T05:27:20;100678.97;;;20.57;100.00
9764;BME280;4921;43.214;27.936;2023-05-29T05:29:48;100685.19;;;20.64;100.00
9764;BME280;4921;43.214;27.936;2023-05-29T05:32:15;100681.34;;;20.67;100.00
9764;BME280;4921;43.214;27.936;2023-05-29T05:34:42;100689.91;;;20.62;100.00
9764;BME280;4921;43.214;27.936;2023-05-29T05:37:09;100698.56;;;20.64;100.00
9764;BME280;4921;43.214;27.936;2023-05-29T05:39:36;100702.91;;;20.65;100.00
9764;BME280;4921;43.214;27.936;2023-05-29T05:42:03;100699.41;;;20.65;100.00
9764;BME280;4921;43.214;27.936;2023-05-29T05:44:30;100707.06;;;20.68;100.00
9764;BME280;4921;43.214;27.936;2023-05-29T05:46:58;100710.72;;;20.67;100.00
9764;BME280;4921;43.214;27.936;2023-05-29T05:49:25;100709.53;;;20.69;100.00
9764;BME280;4921;43.214;27.936;2023-05-29T05:51:52;100714.25;;;20.67;100.00
9764;BME280;4921;43.214;27.936;2023-05-29T05:54:19;100716.56;;;20.70;100.00
9764;BME280;4921;43.214;27.936;2023-05-29T05:56:46;100709.63;;;20.76;100.00
9764;BME280;4921;43.214;27.936;2023-05-29T05:59:13;100707.78;;;20.76;100.00
9764;BME280;4921;43.214;27.936;2023-05-29T06:01:39;100695.44;;;20.75;100.00
9764;BME280;4921;43.214;27.936;2023-05-29T06:04:08;100690.72;;;20.77;100.00
9764;BME280;4921;43.214;27.936;2023-05-29T06:06:35;100686.84;;;20.80;100.00
9764;BME280;4921;43.214;27.936;2023-05-29T06:09:02;100687.28;;;20.83;100.00
9764;BME280;4921;43.214;27.936;2023-05-29T06:11:30;100688.97;;;20.84;100.00
9764;BME280;4921;43.214;27.936;2023-05-29T06:13:57;100681.94;;;20.83;100.00
9764;BME280;4921;43.214;27.936;2023-05-29T06:16:24;100681.94;;;20.83;100.00
9764;BME280;4921;43.214;27.936;2023-05-29T06:18:51;100671.38;;;20.75;100.00
9764;BME280;4921;43.214;27.936;2023-05-29T06:21:19;100673.03;;;20.76;100.00
9764;BME280;4921;43.214;27.936;2023-05-29T06:23:47;100683.09;;;20.74;100.00
9764;BME280;4921;43.214;27.936;2023-05-29T06:26:14;100670.38;;;20.62;100.00
9764;BME280;4921;43.214;27.936;2023-05-29T06:28:41;100689.91;;;20.62;100.00
9764;BME280;4921;43.214;27.936;2023-05-29T06:31:08;100683.81;;;20.53;100.00
9764;BME280;4921;43.214;27.936;2023-05-29T06:33:36;100682.72;;;20.48;100.00
9764;BME280;4921;43.214;27.936;2023-05-29T06:36:03;100676.75;;;20.46;100.00
9764;BME280;4921;43.214;27.936;2023-05-29T06:38:32;100677.38;;;20.48;100.00
9764;BME280;4921;43.214;27.936;2023-05-29T06:40:59;100690.94;;;20.46;100.00
9764;BME280;4921;43.214;27.936;2023-05-29T06:43:27;100681.44;;;20.44;100.00
9764;BME280;4921;43.214;27.936;2023-05-29T06:45:54;100682.09;;;20.46;100.00
9764;BME280;4921;43.214;27.936;2023-05-29T06:48:21;100678.94;;;20.42;100.00
9764;BME280;4921;43.214;27.936;2023-05-29T06:50:48;100677.75;;;20.45;100.00
9764;BME280;4921;43.214;27.936;2023-05-29T06:53:15;100683.91;;;20.45;100.00
9764;BME280;4921;43.214;27.936;2023-05-29T06:55:43;100680.59;;;20.43;100.00
9764;BME280;4921;43.214;27.936;2023-05-29T06:58:10;100685.00;;;20.36;100.00
9764;BME280;4921;43.214;27.936;2023-05-29T07:00:37;100691.09;;;20.30;100.00
9764;BME280;4921;43.214;27.936;2023-05-29T07:03:04;100695.25;;;20.33;100.00
9764;BME280;4921;43.214;27.936;2023-05-29T07:05:31;100703.16;;;20.26;100.00
9764;BME280;4921;43.214;27.936;2023-05-29T07:07:58;100702.69;;;20.23;100.00
9764;BME280;4921;43.214;27.936;2023-05-29T07:10:25;100715.69;;;20.26;100.00
9764;BME280;4921;43.214;27.936;2023-05-29T07:12:53;100727.94;;;20.20;100.00
9764;BME280;4921;43.214;27.936;2023-05-29T07:15:20;100732.75;;;20.17;100.00
9764;BME280;4921;43.214;27.936;2023-05-29T07:17:47;100739.78;;;20.18;100.00
9764;BME280;4921;43.214;27.936;2023-05-29T07:20:14;100739.78;;;20.18;100.00
9764;BME280;4921;43.214;27.936;2023-05-29T07:22:44;100735.16;;;20.12;100.00
9764;BME280;4921;43.214;27.936;2023-05-29T07:25:11;100741.75;;;20.01;100.00
9764;BME280;4921;43.214;27.936;2023-05-29T07:27:38;100742.72;;;19.86;100.00
9764;BME280;4921;43.214;27.936;2023-05-29T07:30:07;100749.53;;;19.88;100.00
9764;BME280;4921;43.214;27.936;2023-05-29T07:32:34;100742.41;;;19.81;100.00
9764;BME280;4921;43.214;27.936;2023-05-29T07:35:01;100743.25;;;19.81;100.00
9764;BME280;4921;43.214;27.936;2023-05-29T07:37:28;100747.28;;;19.77;100.00
9764;BME280;4921;43.214;27.936;2023-05-29T07:39:57;100751.78;;;19.76;100.00
9764;BME280;4921;43.214;27.936;2023-05-29T07:42:24;100749.31;;;19.75;100.00
9764;BME280;4921;43.214;27.936;2023-05-29T07:44:50;100760.13;;;19.73;100.00
9764;BME280;4921;43.214;27.936;2023-05-29T07:47:19;100761.16;;;19.72;100.00
9764;BME280;4921;43.214;27.936;2023-05-29T07:49:46;100763.31;;;19.77;100.00
9764;BME280;4921;43.214;27.936;2023-05-29T07:52:13;100758.09;;;19.84;100.00
9764;BME280;4921;43.214;27.936;2023-05-29T07:54:39;100756.41;;;19.83;100.00
9764;BME280;4921;43.214;27.936;2023-05-29T07:57:06;100746.56;;;19.83;100.00
9764;BME280;4921;43.214;27.936;2023-05-29T07:59:35;100753.94;;;19.81;100.00
9764;BME280;4921;43.214;27.936;2023-05-29T08:02:02;100756.94;;;19.78;100.00
9764;BME280;4921;43.214;27.936;2023-05-29T08:04:30;100752.63;;;19.77;100.00
9764;BME280;4921;43.214;27.936;2023-05-29T08:06:57;100756.06;;;19.86;100.00
9764;BME280;4921;43.214;27.936;2023-05-29T08:09:25;100755.94;;;19.79;100.00
9764;BME280;4921;43.214;27.936;2023-05-29T08:11:52;100767.63;;;19.78;100.00
9764;BME280;4921;43.214;27.936;2023-05-29T08:14:18;100765.88;;;19.62;100.00
9764;BME280;4921;43.214;27.936;2023-05-29T08:16:45;100772.56;;;19.66;100.00
9764;BME280;4921;43.214;27.936;2023-05-29T08:19:12;100768.03;;;19.67;100.00
9764;BME280;4921;43.214;27.936;2023-05-29T08:21:41;100758.69;;;19.71;100.00
9764;BME280;4921;43.214;27.936;2023-05-29T08:24:08;100761.34;;;19.71;100.00
9764;BME280;4921;43.214;27.936;2023-05-29T08:26:35;100761.81;;;19.74;100.00
9764;BME280;4921;43.214;27.936;2023-05-29T08:29:02;100762.66;;;19.75;100.00
9764;BME280;4921;43.214;27.936;2023-05-29T08:31:29;100759.44;;;19.80;100.00
9764;BME280;4921;43.214;27.936;2023-05-29T08:33:57;100762.25;;;19.86;100.00
9764;BME280;4921;43.214;27.936;2023-05-29T08:36:24;100759.19;;;19.89;100.00
9764;BME280;4921;43.214;27.936;2023-05-29T08:38:53;100772.72;;;19.88;100.00
9764;BME280;4921;43.214;27.936;2023-05-29T08:41:24;100760.22;;;19.88;100.00
9764;BME280;4921;43.214;27.936;2023-05-29T08:43:53;100744.44;;;19.78;100.00
9764;BME280;4921;43.214;27.936;2023-05-29T08:46:20;100756.94;;;20.01;100.00
9764;BME280;4921;43.214;27.936;2023-05-29T08:48:48;100743.59;;;20.01;100.00
9764;BME280;4921;43.214;27.936;2023-05-29T08:51:19;100744.59;;;20.00;100.00
9764;BME280;4921;43.214;27.936;2023-05-29T08:53:47;100753.63;;;19.99;100.00
9764;BME280;4921;43.214;27.936;2023-05-29T08:56:15;100757.22;;;20.06;100.00
9764;BME280;4921;43.214;27.936;2023-05-29T08:58:44;100765.34;;;20.12;100.00
9764;BME280;4921;43.214;27.936;2023-05-29T09:01:11;100759.19;;;20.12;100.00
9764;BME280;4921;43.214;27.936;2023-05-29T09:03:38;100762.66;;;20.20;100.00
9764;BME280;4921;43.214;27.936;2023-05-29T09:06:07;100758.13;;;20.21;100.00
9764;BME280;4921;43.214;27.936;2023-05-29T09:08:34;100758.13;;;20.21;100.00
9764;BME280;4921;43.214;27.936;2023-05-29T09:11:02;100754.25;;;20.23;100.00
9764;BME280;4921;43.214;27.936;2023-05-29T09:13:31;100755.75;;;20.26;100.00
9764;BME280;4921;43.214;27.936;2023-05-29T09:15:58;100746.75;;;20.27;100.00
9764;BME280;4921;43.214;27.936;2023-05-29T09:18:28;100756.88;;;20.31;100.00
9764;BME280;4921;43.214;27.936;2023-05-29T09:20:56;100745.81;;;20.34;100.00
9764;BME280;4921;43.214;27.936;2023-05-29T09:23:25;100743.59;;;20.38;100.00
9764;BME280;4921;43.214;27.936;2023-05-29T09:25:53;100751.91;;;20.43;100.00
9764;BME280;4921;43.214;27.936;2023-05-29T09:28:21;100748.41;;;20.42;100.00
9764;BME280;4921;43.214;27.936;2023-05-29T09:30:52;100740.22;;;20.44;100.00
9764;BME280;4921;43.214;27.936;2023-05-29T09:33:19;100736.16;;;20.48;100.00
9764;BME280;4921;43.214;27.936;2023-05-29T09:35:47;100741.88;;;20.45;100.00
9764;BME280;4921;43.214;27.936;2023-05-29T09:38:16;100743.34;;;20.47;100.00
9764;BME280;4921;43.214;27.936;2023-05-29T09:40:44;100738.47;;;20.51;100.00
9764;BME280;4921;43.214;27.936;2023-05-29T09:43:13;100730.81;;;20.63;100.00
9764;BME280;4921;43.214;27.936;2023-05-29T09:45:41;100740.03;;;20.60;100.00
9764;BME280;4921;43.214;27.936;2023-05-29T09:48:12;100731.38;;;20.58;100.00
9764;BME280;4921;43.214;27.936;2023-05-29T09:50:39;100728.34;;;20.61;100.00
9764;BME280;4921;43.214;27.936;2023-05-29T09:53:16;100734.97;;;20.65;100.00
9764;BME280;4921;43.214;27.936;2023-05-29T09:55:45;100726.41;;;20.55;100.00
9764;BME280;4921;43.214;27.936;2023-05-29T09:58:13;100723.84;;;20.62;100.00
9764;BME280;4921;43.214;27.936;2023-05-29T10:00:41;100719.38;;;20.69;100.00
9764;BME280;4921;43.214;27.936;2023-05-29T10:03:10;100718.19;;;20.71;100.00
9764;BME280;4921;43.214;27.936;2023-05-29T10:05:37;100716.44;;;20.78;100.00
9764;BME280;4921;43.214;27.936;2023-05-29T10:08:07;100707.50;;;20.86;100.00
9764;BME280;4921;43.214;27.936;2023-05-29T10:10:35;100709.25;;;20.93;100.00
9764;BME280;4921;43.214;27.936;2023-05-29T10:13:06;100711.53;;;20.96;100.00
9764;BME280;4921;43.214;27.936;2023-05-29T10:15:33;100696.00;;;20.85;100.00
9764;BME280;4921;43.214;27.936;2023-05-29T10:18:03;100704.72;;;20.94;100.00
9764;BME280;4921;43.214;27.936;2023-05-29T10:20:33;100709.88;;;20.95;100.00
9764;BME280;4921;43.214;27.936;2023-05-29T10:23:01;100710.53;;;20.97;100.00
9764;BME280;4921;43.214;27.936;2023-05-29T10:25:31;100702.31;;;20.99;100.00
9764;BME280;4921;43.214;27.936;2023-05-29T10:27:59;100705.47;;;21.02;100.00
9764;BME280;4921;43.214;27.936;2023-05-29T10:30:30;100702.06;;;21.08;100.00
9764;BME280;4921;43.214;27.936;2023-05-29T10:33:15;100702.50;;;21.12;100.00
9764;BME280;4921;43.214;27.936;2023-05-29T10:35:53;100705.44;;;21.17;100.00
9764;BME280;4921;43.214;27.936;2023-05-29T10:38:24;100709.19;;;21.22;100.00
9764;BME280;4921;43.214;27.936;2023-05-29T10:40:52;100708.63;;;21.27;100.00
9764;BME280;4921;43.214;27.936;2023-05-29T10:43:31;100707.88;;;21.33;100.00
9764;BME280;4921;43.214;27.936;2023-05-29T10:45:58;100707.06;;;21.33;100.00
9764;BME280;4921;43.214;27.936;2023-05-29T10:48:39;100708.78;;;21.40;100.00
9764;BME280;4921;43.214;27.936;2023-05-29T10:51:23;100703.50;;;21.47;100.00
9764;BME280;4921;43.214;27.936;2023-05-29T10:53:51;100695.91;;;21.50;100.00
9764;BME280;4921;43.214;27.936;2023-05-29T10:56:21;100699.22;;;21.52;100.00
9764;BME280;4921;43.214;27.936;2023-05-29T10:58:52;100698.22;;;21.53;100.00
9764;BME280;4921;43.214;27.936;2023-05-29T11:01:22;100696.19;;;21.55;100.00
9764;BME280;4921;43.214;27.936;2023-05-29T11:03:50;100703.22;;;21.56;100.00
9764;BME280;4921;43.214;27.936;2023-05-29T11:06:21;100703.84;;;21.58;100.00
9764;BME280;4921;43.214;27.936;2023-05-29T11:08:53;100697.66;;;21.58;100.00
9764;BME280;4921;43.214;27.936;2023-05-29T11:11:29;100701.97;;;21.59;100.00
9764;BME280;4921;43.214;27.936;2023-05-29T11:14:00;100702.16;;;21.57;100.00
9764;BME280;4921;43.214;27.936;2023-05-29T11:16:38;100710.59;;;21.54;100.00
9764;BME280;4921;43.214;27.936;2023-05-29T11:19:07;100704.22;;;21.55;100.00
9764;BME280;4921;43.214;27.936;2023-05-29T11:21:48;100698.41;;;21.52;100.00
9764;BME280;4921;43.214;27.936;2023-05-29T11:24:21;100694.28;;;21.49;100.00
9764;BME280;4921;43.214;27.936;2023-05-29T11:26:50;100699.22;;;21.52;100.00
9764;BME280;4921;43.214;27.936;2023-05-29T11:29:22;100704.72;;;21.44;100.00
9764;BME280;4921;43.214;27.936;2023-05-29T11:31:54;100703.81;;;21.37;100.00
9764;BME280;4921;43.214;27.936;2023-05-29T11:34:23;100699.69;;;21.35;100.00
9764;BME280;4921;43.214;27.936;2023-05-29T11:36:56;100707.31;;;21.38;100.00
9764;BME280;4921;43.214;27.936;2023-05-29T11:39:23;100713.88;;;21.35;100.00
9764;BME280;4921;43.214;27.936;2023-05-29T11:41:50;100712.44;;;21.33;100.00
9764;BME280;4921;43.214;27.936;2023-05-29T11:44:18;100716.75;;;21.34;100.00
9764;BME280;4921;43.214;27.936;2023-05-29T11:46:45;100717.56;;;21.34;100.00
9764;BME280;4921;43.214;27.936;2023-05-29T11:49:12;100714.25;;;21.32;100.00
9764;BME280;4921;43.214;27.936;2023-05-29T11:51:42;100705.97;;;21.27;100.00
9764;BME280;4921;43.214;27.936;2023-05-29T11:54:27;100708.44;;;21.28;100.00
9764;BME280;4921;43.214;27.936;2023-05-29T11:56:55;100700.25;;;21.30;100.00
9764;BME280;4921;43.214;27.936;2023-05-29T11:59:22;100704.56;;;21.31;100.00
9764;BME280;4921;43.214;27.936;2023-05-29T12:01:49;100705.59;;;21.30;100.00
9764;BME280;4921;43.214;27.936;2023-05-29T12:04:16;100707.63;;;21.28;100.00
9764;BME280;4921;43.214;27.936;2023-05-29T12:06:43;100702.66;;;21.25;100.00
9764;BME280;4921;43.214;27.936;2023-05-29T12:09:23;100697.50;;;21.23;100.00
9764;BME280;4921;43.214;27.936;2023-05-29T12:11:52;100678.06;;;21.15;100.00
9764;BME280;4921;43.214;27.936;2023-05-29T12:14:19;100695.00;;;21.22;100.00
9764;BME280;4921;43.214;27.936;2023-05-29T12:16:46;100692.72;;;21.19;100.00
9764;BME280;4921;43.214;27.936;2023-05-29T12:19:13;100693.72;;;21.18;100.00
9764;BME280;4921;43.214;27.936;2023-05-29T12:21:41;100690.03;;;21.19;100.00
9764;BME280;4921;43.214;27.936;2023-05-29T12:24:09;100690.03;;;21.19;100.00
9764;BME280;4921;43.214;27.936;2023-05-29T12:26:36;100693.34;;;21.21;100.00
9764;BME280;4921;43.214;27.936;2023-05-29T12:29:04;100686.34;;;21.20;100.00
9764;BME280;4921;43.214;27.936;2023-05-29T12:31:31;100678.44;;;21.12;100.00
9764;BME280;4921;43.214;27.936;2023-05-29T12:34:00;100688.28;;;21.26;100.00
9764;BME280;4921;43.214;27.936;2023-05-29T12:36:28;100688.63;;;21.23;100.00
9764;BME280;4921;43.214;27.936;2023-05-29T12:38:56;100682.44;;;21.22;100.00
9764;BME280;4921;43.214;27.936;2023-05-29T12:41:27;100682.66;;;21.21;100.00
9764;BME280;4921;43.214;27.936;2023-05-29T12:43:55;100679.34;;;21.19;100.00
9764;BME280;4921;43.214;27.936;2023-05-29T12:46:24;100678.50;;;21.18;100.00
9764;BME280;4921;43.214;27.936;2023-05-29T12:48:53;100669.63;;;21.18;100.00
9764;BME280;4921;43.214;27.936;2023-05-29T12:51:23;100663.84;;;21.14;100.00
9764;BME280;4921;43.214;27.936;2023-05-29T12:53:51;100671.44;;;21.11;100.00
9764;BME280;4921;43.214;27.936;2023-05-29T12:56:21;100670.59;;;21.10;100.00